createdAt,value
2022-08-17T00:00:34.937Z,20.95
2022-08-17T00:03:06.223Z,20.91
2022-08-17T00:05:36.720Z,20.88
2022-08-17T00:08:05.674Z,20.86
2022-08-17T00:10:35.492Z,20.84
2022-08-17T00:13:07.321Z,20.81
2022-08-17T00:15:35.190Z,20.76
2022-08-17T00:18:03.049Z,20.72
2022-08-17T00:20:33.444Z,20.68
2022-08-17T00:23:05.920Z,20.65
2022-08-17T00:25:35.473Z,20.61
2022-08-17T00:28:03.462Z,20.58
2022-08-17T00:30:31.654Z,20.54
2022-08-17T00:33:23.673Z,20.51
2022-08-17T00:35:52.473Z,20.48
2022-08-17T00:38:20.980Z,20.45
2022-08-17T00:40:55.962Z,20.42
2022-08-17T00:43:32.453Z,20.37
2022-08-17T00:46:03.097Z,20.34
2022-08-17T00:48:31.619Z,20.30
2022-08-17T00:51:06.606Z,20.28
2022-08-17T00:53:39.929Z,20.25
2022-08-17T00:56:12.971Z,20.22
2022-08-17T00:58:42.062Z,20.19
2022-08-17T01:01:12.467Z,20.16
2022-08-17T01:03:50.395Z,20.13
2022-08-17T01:06:18.908Z,20.10
2022-08-17T01:08:47.080Z,20.08
2022-08-17T01:11:17.300Z,20.04
2022-08-17T01:13:47.796Z,20.01
2022-08-17T01:16:21.527Z,19.98
2022-08-17T01:18:51.616Z,19.93
2022-08-17T01:21:27.948Z,19.90
2022-08-17T01:23:57.797Z,19.87
2022-08-17T01:26:25.952Z,19.84
2022-08-17T01:28:55.997Z,19.80
2022-08-17T01:31:31.533Z,19.78
2022-08-17T01:34:02.577Z,19.73
2022-08-17T01:36:30.684Z,19.69
2022-08-17T01:39:00.191Z,19.68
2022-08-17T01:41:29.350Z,19.62
2022-08-17T01:44:02.504Z,19.61
2022-08-17T01:46:33.512Z,19.57
2022-08-17T01:49:02.576Z,19.54
2022-08-17T01:51:33.032Z,19.52
2022-08-17T01:54:06.237Z,19.50
2022-08-17T01:56:36.272Z,19.48
2022-08-17T01:59:05.230Z,19.44
2022-08-17T02:01:37.147Z,19.41
2022-08-17T02:04:08.408Z,19.40
2022-08-17T02:06:53.661Z,19.37
2022-08-17T02:09:25.919Z,19.33
2022-08-17T02:11:55.009Z,19.30
2022-08-17T02:14:25.251Z,19.27
2022-08-17T02:16:53.973Z,19.24
2022-08-17T02:19:22.878Z,19.21
2022-08-17T02:21:52.803Z,19.20
2022-08-17T02:24:59.964Z,19.18
2022-08-17T02:27:14.995Z,19.13
2022-08-17T02:29:42.888Z,19.11
2022-08-17T02:32:20.994Z,19.08
2022-08-17T02:34:56.724Z,19.05
2022-08-17T02:37:24.864Z,19.00
2022-08-17T02:39:54.286Z,18.99
2022-08-17T02:42:28.602Z,18.95
2022-08-17T02:44:56.511Z,18.90
2022-08-17T02:47:25.168Z,18.87
2022-08-17T02:49:55.513Z,18.85
2022-08-17T02:52:42.534Z,18.82
2022-08-17T02:55:15.412Z,18.79
2022-08-17T02:57:43.512Z,18.78
2022-08-17T03:00:25.860Z,18.77
2022-08-17T03:02:54.185Z,18.73
2022-08-17T03:05:23.508Z,18.69
2022-08-17T03:07:52.250Z,18.67
2022-08-17T03:10:22.586Z,18.64
2022-08-17T03:12:50.654Z,18.61
2022-08-17T03:15:21.077Z,18.58
2022-08-17T03:17:49.663Z,18.56
2022-08-17T03:20:18.303Z,18.52
2022-08-17T03:22:53.431Z,18.49
2022-08-17T03:25:25.703Z,18.46
2022-08-17T03:27:54.232Z,18.45
2022-08-17T03:30:23.468Z,18.43
2022-08-17T03:32:53.239Z,18.39
2022-08-17T03:35:23.213Z,18.37
2022-08-17T03:37:59.965Z,18.35
2022-08-17T03:40:55.875Z,18.32
2022-08-17T03:43:20.384Z,18.29
2022-08-17T03:46:10.747Z,18.27
2022-08-17T03:49:12.454Z,18.25
2022-08-17T03:51:58.040Z,18.24
2022-08-17T03:54:43.621Z,18.21
2022-08-17T03:57:13.913Z,18.19
2022-08-17T03:59:42.611Z,18.17
2022-08-17T04:02:14.061Z,18.15
2022-08-17T04:04:41.994Z,18.13
2022-08-17T04:07:09.885Z,18.13
2022-08-17T04:09:37.857Z,18.12
2022-08-17T04:12:07.081Z,18.12
2022-08-17T04:14:51.855Z,18.12
2022-08-17T04:17:23.030Z,18.13
2022-08-17T04:19:50.958Z,18.15
2022-08-17T04:22:32.680Z,18.15
2022-08-17T04:25:04.393Z,18.14
2022-08-17T04:27:32.390Z,18.14
2022-08-17T04:30:01.855Z,18.12
2022-08-17T04:33:04.098Z,18.13
2022-08-17T04:35:22.508Z,18.13
2022-08-17T04:37:50.340Z,18.13
2022-08-17T04:40:37.045Z,18.16
2022-08-17T04:43:07.098Z,18.19
2022-08-17T04:45:40.845Z,18.20
2022-08-17T04:48:23.280Z,18.21
2022-08-17T04:50:55.858Z,18.22
2022-08-17T04:53:23.695Z,18.24
2022-08-17T04:55:53.127Z,18.27
2022-08-17T04:58:21.626Z,18.30
2022-08-17T05:00:50.905Z,18.33
2022-08-17T05:03:18.810Z,18.37
2022-08-17T05:05:49.485Z,18.39
2022-08-17T05:08:18.813Z,18.45
2022-08-17T05:10:47.961Z,18.50
2022-08-17T05:13:19.665Z,18.56
2022-08-17T05:15:51.208Z,18.61
2022-08-17T05:18:19.156Z,18.66
2022-08-17T05:20:47.160Z,18.72
2022-08-17T05:23:16.721Z,18.75
2022-08-17T05:25:47.916Z,18.78
2022-08-17T05:28:16.823Z,18.84
2022-08-17T05:30:49.229Z,18.88
2022-08-17T05:33:21.476Z,18.94
2022-08-17T05:35:52.243Z,19.00
2022-08-17T05:38:22.457Z,19.07
2022-08-17T05:40:51.308Z,19.13
2022-08-17T05:43:21.872Z,19.22
2022-08-17T05:45:58.599Z,19.31
2022-08-17T05:48:35.818Z,19.39
2022-08-17T05:51:35.585Z,19.47
2022-08-17T05:54:16.585Z,19.54
2022-08-17T05:57:04.261Z,19.62
2022-08-17T05:59:41.652Z,19.70
2022-08-17T06:02:20.027Z,19.76
2022-08-17T06:05:02.862Z,19.80
2022-08-17T06:07:37.915Z,19.84
2022-08-17T06:10:13.587Z,19.89
2022-08-17T06:12:49.152Z,19.98
2022-08-17T06:15:28.608Z,20.06
2022-08-17T06:18:03.186Z,20.11
2022-08-17T06:20:39.699Z,20.20
2022-08-17T06:23:14.300Z,20.27
2022-08-17T06:25:49.333Z,20.32
2022-08-17T06:28:26.814Z,20.37
2022-08-17T06:31:01.418Z,20.45
2022-08-17T06:33:34.377Z,20.53
2022-08-17T06:36:16.031Z,20.60
2022-08-17T06:38:54.186Z,20.66
2022-08-17T06:41:31.491Z,20.70
2022-08-17T06:44:49.901Z,20.75
2022-08-17T06:47:09.036Z,20.81
2022-08-17T06:49:53.221Z,20.85
2022-08-17T06:52:45.726Z,20.91
2022-08-17T06:55:21.402Z,20.97
2022-08-17T06:57:53.849Z,21.04
2022-08-17T07:04:54.908Z,21.27
2022-08-17T07:11:51.621Z,21.45
2022-08-17T07:14:37.772Z,21.55
2022-08-17T07:17:10.130Z,21.67
2022-08-17T07:19:41.405Z,21.79
2022-08-17T07:22:22.949Z,21.90
2022-08-17T07:24:53.683Z,22.03
2022-08-17T07:27:27.546Z,22.15
2022-08-17T07:29:59.384Z,22.25
2022-08-17T07:32:31.601Z,22.38
2022-08-17T07:35:11.295Z,22.50
2022-08-17T07:37:40.663Z,22.59
2022-08-17T07:40:25.819Z,22.74
2022-08-17T07:43:23.764Z,22.86
2022-08-17T07:46:13.172Z,23.00
2022-08-17T07:48:43.871Z,23.13
2022-08-17T07:51:27.021Z,23.28
2022-08-17T07:54:13.102Z,23.37
2022-08-17T07:56:45.866Z,23.46
2022-08-17T07:59:18.132Z,23.57
2022-08-17T08:02:03.571Z,23.72
2022-08-17T08:04:59.027Z,23.84
2022-08-17T08:07:28.611Z,24.04
2022-08-17T08:10:08.407Z,24.23
2022-08-17T08:12:37.932Z,24.41
2022-08-17T08:15:19.049Z,24.60
2022-08-17T08:17:51.958Z,24.77
2022-08-17T08:20:52.412Z,24.93
2022-08-17T08:23:18.836Z,25.13
2022-08-17T08:25:59.516Z,25.32
2022-08-17T08:28:35.164Z,25.49
2022-08-17T08:31:13.841Z,25.66
2022-08-17T08:33:54.989Z,25.83
2022-08-17T08:37:12.856Z,26.04
2022-08-17T08:39:35.479Z,26.26
2022-08-17T08:42:10.289Z,26.45
2022-08-17T08:45:00.953Z,26.65
2022-08-17T08:48:05.370Z,26.85
2022-08-17T08:50:47.618Z,27.05
2022-08-17T08:53:23.622Z,27.27
2022-08-17T08:55:56.882Z,27.40
2022-08-17T08:58:41.722Z,27.56
2022-08-17T09:01:22.306Z,27.77
2022-08-17T09:04:23.337Z,27.99
2022-08-17T09:07:05.055Z,28.20
2022-08-17T09:09:41.117Z,28.40
2022-08-17T09:12:15.397Z,28.60
2022-08-17T09:14:57.943Z,28.76
2022-08-17T09:17:36.155Z,28.97
2022-08-17T09:20:27.386Z,29.09
2022-08-17T09:23:02.744Z,29.25
2022-08-17T09:25:36.357Z,29.43
2022-08-17T09:28:07.560Z,29.63
2022-08-17T09:30:42.380Z,29.74
2022-08-17T09:33:12.569Z,29.85
2022-08-17T09:35:46.685Z,30.00
2022-08-17T09:38:22.379Z,30.16
2022-08-17T09:40:56.548Z,30.27
2022-08-17T09:43:33.479Z,30.35
2022-08-17T09:46:04.955Z,30.46
2022-08-17T09:48:38.768Z,30.48
2022-08-17T09:51:14.980Z,30.63
2022-08-17T09:53:44.708Z,30.78
2022-08-17T09:56:27.605Z,30.99
2022-08-17T09:59:18.054Z,31.14
2022-08-17T10:01:50.916Z,31.21
2022-08-17T10:04:33.240Z,31.24
2022-08-17T10:07:11.453Z,31.21
2022-08-17T10:09:49.705Z,31.17
2022-08-17T10:12:32.083Z,31.27
2022-08-17T10:15:22.525Z,31.36
2022-08-17T10:18:07.712Z,31.50
2022-08-17T10:21:13.267Z,31.68
2022-08-17T10:24:05.749Z,31.91
2022-08-17T10:26:55.400Z,32.16
2022-08-17T10:29:29.744Z,32.34
2022-08-17T10:32:12.386Z,32.47
2022-08-17T10:35:03.836Z,32.66
2022-08-17T10:37:48.578Z,32.73
2022-08-17T10:40:27.914Z,32.74
2022-08-17T10:42:59.690Z,32.80
2022-08-17T10:45:34.797Z,32.81
2022-08-17T10:48:27.865Z,32.79
2022-08-17T10:51:02.557Z,32.81
2022-08-17T10:53:53.261Z,32.95
2022-08-17T10:56:38.940Z,33.23
2022-08-17T10:59:09.016Z,33.51
2022-08-17T11:02:13.992Z,33.51
2022-08-17T11:04:58.431Z,33.57
2022-08-17T11:07:43.860Z,33.40
2022-08-17T11:10:49.940Z,33.28
2022-08-17T11:13:33.649Z,33.41
2022-08-17T11:16:13.691Z,33.70
2022-08-17T11:18:58.016Z,34.00
2022-08-17T11:21:41.706Z,34.33
2022-08-17T11:24:18.422Z,34.54
2022-08-17T11:27:01.831Z,34.52
2022-08-17T11:29:36.226Z,34.24
2022-08-17T11:32:11.544Z,34.05
2022-08-17T11:34:40.999Z,33.88
2022-08-17T11:37:33.974Z,33.56
2022-08-17T11:40:15.444Z,33.29
2022-08-17T11:43:08.966Z,33.40
2022-08-17T11:46:04.042Z,33.53
2022-08-17T11:48:57.031Z,33.83
2022-08-17T11:51:45.881Z,34.15
2022-08-17T11:54:38.931Z,34.04
2022-08-17T11:57:40.410Z,33.84
2022-08-17T12:00:10.953Z,33.70
2022-08-17T12:02:48.277Z,33.64
2022-08-17T12:05:33.362Z,33.75
2022-08-17T12:08:24.134Z,33.80
2022-08-17T12:11:03.972Z,33.76
2022-08-17T12:13:39.403Z,33.71
2022-08-17T12:16:09.365Z,33.63
2022-08-17T12:18:47.476Z,33.56
2022-08-17T12:21:49.853Z,33.60
2022-08-17T12:24:31.315Z,33.68
2022-08-17T12:27:01.295Z,33.69
2022-08-17T12:29:38.931Z,34.04
2022-08-17T12:32:13.936Z,34.44
2022-08-17T12:34:44.081Z,34.61
2022-08-17T12:37:19.018Z,34.64
2022-08-17T12:39:57.739Z,34.64
2022-08-17T12:42:29.368Z,34.58
2022-08-17T12:44:57.684Z,34.51
2022-08-17T12:47:26.608Z,34.52
2022-08-17T12:50:08.374Z,34.57
2022-08-17T12:53:02.003Z,34.58
2022-08-17T12:55:36.611Z,34.59
2022-08-17T12:58:05.305Z,34.73
2022-08-17T13:00:37.625Z,34.95
2022-08-17T13:03:09.637Z,35.15
2022-08-17T13:05:43.616Z,35.17
2022-08-17T13:08:17.713Z,35.36
2022-08-17T13:10:56.556Z,35.35
2022-08-17T13:13:26.412Z,35.33
2022-08-17T13:15:57.080Z,35.20
2022-08-17T13:18:41.877Z,35.06
2022-08-17T13:21:22.209Z,35.27
2022-08-17T13:24:01.311Z,35.74
2022-08-17T13:26:33.965Z,36.16
2022-08-17T13:29:03.595Z,36.56
2022-08-17T13:31:51.165Z,36.74
2022-08-17T13:34:34.658Z,36.90
2022-08-17T13:37:27.014Z,37.20
2022-08-17T13:39:57.958Z,37.31
2022-08-17T13:42:52.022Z,37.53
2022-08-17T13:45:38.944Z,37.65
2022-08-17T13:48:13.537Z,37.75
2022-08-17T13:50:45.150Z,37.76
2022-08-17T13:53:18.577Z,37.77
2022-08-17T13:55:54.390Z,37.96
2022-08-17T13:58:25.137Z,38.12
2022-08-17T14:00:53.485Z,38.13
2022-08-17T14:03:21.719Z,38.06
2022-08-17T14:05:50.980Z,38.16
2022-08-17T14:08:20.764Z,38.43
2022-08-17T14:10:58.250Z,38.63
2022-08-17T14:13:26.115Z,38.64
2022-08-17T14:15:56.528Z,38.59
2022-08-17T14:18:35.601Z,38.47
2022-08-17T14:21:13.155Z,38.24
2022-08-17T14:23:41.108Z,38.01
2022-08-17T14:26:18.741Z,37.77
2022-08-17T14:28:56.511Z,37.60
2022-08-17T14:31:25.120Z,37.38
2022-08-17T14:33:53.115Z,37.13
2022-08-17T14:36:21.034Z,36.80
2022-08-17T14:38:48.861Z,36.58
2022-08-17T14:41:22.046Z,36.43
2022-08-17T14:43:52.969Z,36.28
2022-08-17T14:46:21.448Z,36.04
2022-08-17T14:48:55.135Z,35.91
2022-08-17T14:51:30.007Z,35.82
2022-08-17T14:53:58.630Z,35.69
2022-08-17T14:56:28.520Z,35.59
2022-08-17T14:59:03.186Z,35.52
2022-08-17T15:01:31.178Z,35.45
2022-08-17T15:03:59.448Z,35.50
2022-08-17T15:06:27.300Z,35.57
2022-08-17T15:08:55.736Z,35.55
2022-08-17T15:11:23.603Z,35.45
2022-08-17T15:13:53.397Z,35.29
2022-08-17T15:16:21.619Z,35.18
2022-08-17T15:18:50.181Z,35.12
2022-08-17T15:21:18.317Z,35.02
2022-08-17T15:23:46.680Z,35.00
2022-08-17T15:26:14.649Z,34.98
2022-08-17T15:28:42.554Z,34.87
2022-08-17T15:31:11.776Z,34.74
2022-08-17T15:33:39.985Z,34.65
2022-08-17T15:36:09.322Z,34.65
2022-08-17T15:38:39.399Z,34.61
2022-08-17T15:41:08.656Z,34.59
2022-08-17T15:43:37.227Z,34.53
2022-08-17T15:46:10.538Z,34.44
2022-08-17T15:48:42.192Z,34.29
2022-08-17T15:51:13.958Z,34.19
2022-08-17T15:53:43.925Z,34.09
2022-08-17T15:56:13.709Z,33.94
2022-08-17T15:58:42.514Z,33.75
2022-08-17T16:01:17.127Z,33.64
2022-08-17T16:04:04.821Z,33.57
2022-08-17T16:06:37.277Z,33.53
2022-08-17T16:09:05.312Z,33.49
2022-08-17T16:11:33.162Z,33.44
2022-08-17T16:14:01.023Z,33.40
2022-08-17T16:16:31.274Z,33.37
2022-08-17T16:19:00.503Z,33.32
2022-08-17T16:21:42.834Z,33.28
2022-08-17T16:24:13.103Z,33.24
2022-08-17T16:26:41.747Z,33.16
2022-08-17T16:29:10.343Z,33.13
2022-08-17T16:31:38.603Z,33.06
2022-08-17T16:34:17.717Z,33.00
2022-08-17T16:36:55.615Z,32.94
2022-08-17T16:39:29.146Z,32.89
2022-08-17T16:41:57.796Z,32.79
2022-08-17T16:44:31.681Z,32.69
2022-08-17T16:47:01.263Z,32.59
2022-08-17T16:49:37.451Z,32.49
2022-08-17T16:52:10.022Z,32.39
2022-08-17T16:54:40.632Z,32.28
2022-08-17T16:57:08.669Z,32.16
2022-08-17T16:59:40.935Z,32.06
2022-08-17T17:02:14.284Z,31.95
2022-08-17T17:04:51.092Z,31.86
2022-08-17T17:07:37.268Z,31.76
2022-08-17T17:10:09.560Z,31.66
2022-08-17T17:13:03.608Z,31.57
2022-08-17T17:15:40.411Z,31.46
2022-08-17T17:18:14.799Z,31.37
2022-08-17T17:20:54.179Z,31.28
2022-08-17T17:23:36.542Z,31.19
2022-08-17T17:26:15.360Z,31.10
2022-08-17T17:28:52.133Z,31.01
2022-08-17T17:31:23.858Z,30.92
2022-08-17T17:33:55.947Z,30.81
2022-08-17T17:36:30.565Z,30.73
2022-08-17T17:39:04.255Z,30.66
2022-08-17T17:41:37.898Z,30.60
2022-08-17T17:44:12.247Z,30.52
2022-08-17T17:46:45.078Z,30.45
2022-08-17T17:49:14.321Z,30.36
2022-08-17T17:52:06.700Z,30.28
2022-08-17T17:54:55.641Z,30.19
2022-08-17T17:57:33.716Z,30.08
2022-08-17T18:00:09.345Z,30.00
2022-08-17T18:02:54.440Z,29.93
2022-08-17T18:05:36.344Z,29.85
2022-08-17T18:08:16.470Z,29.75
2022-08-17T18:10:51.136Z,29.69
2022-08-17T18:13:29.219Z,29.61
2022-08-17T18:16:00.771Z,29.53
2022-08-17T18:18:40.773Z,29.46
2022-08-17T18:21:16.805Z,29.40
2022-08-17T18:23:53.861Z,29.35
2022-08-17T18:26:55.328Z,29.27
2022-08-17T18:29:42.215Z,29.18
2022-08-17T18:32:19.338Z,29.08
2022-08-17T18:34:50.214Z,29.02
2022-08-17T18:37:33.740Z,28.96
2022-08-17T18:40:35.431Z,28.90
2022-08-17T18:43:09.526Z,28.84
2022-08-17T18:45:54.559Z,28.78
2022-08-17T18:48:33.147Z,28.72
2022-08-17T18:51:40.659Z,28.67
2022-08-17T18:54:21.889Z,28.59
2022-08-17T18:56:54.147Z,28.53
2022-08-17T18:59:40.063Z,28.47
2022-08-17T19:02:44.620Z,28.41
2022-08-17T19:05:18.790Z,28.34
2022-08-17T19:07:49.121Z,28.29
2022-08-17T19:10:26.371Z,28.24
2022-08-17T19:13:12.690Z,28.19
2022-08-17T19:15:46.646Z,28.12
2022-08-17T19:18:39.469Z,28.08
2022-08-17T19:21:12.343Z,28.02
2022-08-17T19:23:53.516Z,27.97
2022-08-17T19:26:53.853Z,27.92
2022-08-17T19:29:26.181Z,27.85
2022-08-17T19:31:59.518Z,27.79
2022-08-17T19:34:33.475Z,27.72
2022-08-17T19:37:09.038Z,27.65
2022-08-17T19:39:44.403Z,27.59
2022-08-17T19:42:17.123Z,27.51
2022-08-17T19:44:56.380Z,27.44
2022-08-17T19:47:53.735Z,27.36
2022-08-17T19:50:31.458Z,27.28
2022-08-17T19:53:09.952Z,27.21
2022-08-17T19:55:51.130Z,27.15
2022-08-17T19:58:33.249Z,27.10
2022-08-17T20:01:06.913Z,27.03
2022-08-17T20:03:41.363Z,26.98
2022-08-17T20:06:13.998Z,26.92
2022-08-17T20:08:49.893Z,26.84
2022-08-17T20:11:23.012Z,26.80
2022-08-17T20:14:05.247Z,26.75
2022-08-17T20:16:37.698Z,26.69
2022-08-17T20:19:12.434Z,26.67
2022-08-17T20:21:54.028Z,26.63
2022-08-17T20:24:28.583Z,26.58
2022-08-17T20:27:02.847Z,26.52
2022-08-17T20:29:40.247Z,26.46
2022-08-17T20:32:27.923Z,26.42
2022-08-17T20:35:08.128Z,26.37
2022-08-17T20:37:43.372Z,26.31
2022-08-17T20:40:39.460Z,26.27
2022-08-17T20:43:51.677Z,26.20
2022-08-17T20:46:31.987Z,26.14
2022-08-17T20:49:25.823Z,26.08
2022-08-17T20:52:05.090Z,26.02
2022-08-17T20:54:51.561Z,25.96
2022-08-17T20:57:49.239Z,25.90
2022-08-17T21:00:47.138Z,25.84
2022-08-17T21:03:51.070Z,25.76
2022-08-17T21:06:23.869Z,25.72
2022-08-17T21:08:57.777Z,25.67
2022-08-17T21:11:57.113Z,25.55
2022-08-17T21:15:00.066Z,25.44
2022-08-17T21:17:49.953Z,25.34
2022-08-17T21:20:40.171Z,25.27
2022-08-17T21:23:47.038Z,25.17
2022-08-17T21:26:30.596Z,25.08
2022-08-17T21:29:29.689Z,25.01
2022-08-17T21:32:24.221Z,24.98
2022-08-17T21:35:22.770Z,24.95
2022-08-17T21:37:54.296Z,24.92
2022-08-17T21:40:27.641Z,24.89
2022-08-17T21:42:58.269Z,24.88
2022-08-17T21:45:30.237Z,24.85
2022-08-17T21:48:13.189Z,24.82
2022-08-17T21:50:44.176Z,24.78
2022-08-17T21:53:19.572Z,24.78
2022-08-17T21:55:51.305Z,24.73
2022-08-17T21:58:30.721Z,24.66
2022-08-17T22:01:23.665Z,24.60
2022-08-17T22:04:20.304Z,24.55
2022-08-17T22:06:56.822Z,24.51
2022-08-17T22:09:27.908Z,24.46
2022-08-17T22:12:05.936Z,24.42
2022-08-17T22:14:53.095Z,24.35
2022-08-17T22:17:25.070Z,24.30
2022-08-17T22:22:30.400Z,24.19
2022-08-17T22:25:04.256Z,24.15
2022-08-17T22:27:49.949Z,24.10
2022-08-17T22:30:26.574Z,24.06
2022-08-17T22:32:55.885Z,24.00
2022-08-17T22:35:37.459Z,23.96
2022-08-17T22:38:32.554Z,23.94
2022-08-17T22:41:31.485Z,23.87
2022-08-17T22:44:08.807Z,23.83
2022-08-17T22:46:41.752Z,23.78
2022-08-17T22:49:10.343Z,23.74
2022-08-17T22:51:38.527Z,23.70
2022-08-17T22:54:36.507Z,23.67
2022-08-17T22:57:29.524Z,23.62
2022-08-17T22:59:59.665Z,23.56
2022-08-17T23:02:29.487Z,23.53
2022-08-17T23:05:22.113Z,23.48
2022-08-17T23:07:53.864Z,23.44
2022-08-17T23:10:22.358Z,23.39
2022-08-17T23:12:52.366Z,23.36
2022-08-17T23:15:22.080Z,23.30
2022-08-17T23:17:50.723Z,23.25
2022-08-17T23:20:19.397Z,23.19
2022-08-17T23:22:51.759Z,23.16
2022-08-17T23:25:27.266Z,23.10
2022-08-17T23:27:55.790Z,23.04
2022-08-17T23:30:30.791Z,22.99
2022-08-17T23:33:01.267Z,22.94
2022-08-17T23:35:40.508Z,22.89
2022-08-17T23:38:10.451Z,22.82
2022-08-17T23:40:40.126Z,22.75
2022-08-17T23:43:23.881Z,22.69
2022-08-17T23:45:57.820Z,22.59
2022-08-17T23:48:34.973Z,22.55
2022-08-17T23:51:09.223Z,22.51
2022-08-17T23:53:40.218Z,22.46
2022-08-17T23:56:11.482Z,22.41
2022-08-17T23:58:42.330Z,22.39
